METAR Data
IDs: Format: Raw Decoded Include TAF

Data at: 1438 UTC 10 Aug 2022

KRNM 101353Z AUTO 00000KT 10SM CLR 20/09 A3002 RMK AO2 SLP149 T02000089
KRNM 101253Z AUTO 00000KT 10SM CLR 18/08 A3000 RMK AO2 SLP143 T01780083
KRNM 101153Z AUTO 07003KT 10SM CLR 19/08 A2999 RMK AO2 SLP138 T01940083 10233 20183 56003
KRNM 101053Z AUTO 00000KT 10SM CLR 19/09 A3000 RMK AO2 SLP139 T01890089
KRNM 100953Z AUTO 00000KT 10SM CLR 21/08 A3000 RMK AO2 SLP139 T02060083
KRNM 100853Z AUTO 00000KT 10SM CLR 20/08 A3000 RMK AO2 SLP140 T02000078 58003
KRNM 100753Z AUTO 00000KT 10SM CLR 22/08 A3001 RMK AO2 SLP142 T02170083 403610194
KRNM 100653Z AUTO 00000KT 10SM CLR 22/09 A3002 RMK AO2 SLP144 T02220089
KRNM 100553Z AUTO 00000KT 10SM CLR 23/08 A3001 RMK AO2 SLP143 T02330083 10322 20233 51014
KRNM 100453Z AUTO 08003KT 10SM CLR 25/08 A3001 RMK AO2 SLP141 T02500078
KRNM 100353Z AUTO 00000KT 10SM CLR 26/09 A2999 RMK AO2 SLP135 T02560089
KRNM 100253Z AUTO 28004KT 10SM CLR 27/08 A2997 RMK AO2 SLP130 T02670078 53008
KRNM 100153Z AUTO 29006KT 10SM CLR 29/07 A2995 RMK AO2 SLP124 T02890072
KRNM 100053Z AUTO 27008KT 10SM CLR 30/09 A2994 RMK AO2 SLP121 T03000094
KRNM 092353Z 26009KT 10SM CLR 32/12 A2994 RMK AO2 SLP121 T03220122 10361 20322 56004
KRNM 092253Z 27009KT 10SM CLR 33/14 A2995 RMK AO2 SLP123 T03280144
KRNM 092153Z 27010G18KT 10SM CLR 34/16 A2995 RMK AO2 SLP122 T03390156
KRNM 092053Z 26012G18KT 10SM CLR 34/16 A2996 RMK AO2 SLP125 T03440161 58006
KRNM 091953Z COR 23009KT 10SM CLR 34/17 A2996 RMK AO2 TCU DSNT N-SE SLP126 T03440172
KRNM 091853Z 27010KT 10SM CLR 36/16 A2997 RMK AO2 SLP129 T03560161
KRNM 091753Z 28008KT 10SM CLR 34/15 A2998 RMK AO2 SLP130 T03440150 10350 20194 58002
KRNM 091653Z 00000KT 10SM CLR 32/15 A2998 RMK AO2 SLP133 T03220150
KRNM 091553Z AUTO 18003KT 10SM CLR 31/14 A2999 RMK AO2 SLP135 T03060139
KRNM 091453Z AUTO 00000KT 10SM CLR 27/14 A2998 RMK AO2 SLP134 T02670144 53009
KRNM 091353Z AUTO 00000KT 10SM CLR 23/12 A2997 RMK AO2 SLP133 T02280122
KRNM 091253Z AUTO 00000KT 10SM CLR 21/13 A2996 RMK AO2 SLP126 T02060133
KRNM 091153Z AUTO 00000KT 10SM CLR 21/13 A2995 RMK AO2 SLP123 T02060133 10244 20194 53001
KRNM 091053Z AUTO 00000KT 10SM CLR 21/13 A2994 RMK AO2 SLP121 T02060128
KRNM 090953Z AUTO 00000KT 10SM CLR 22/12 A2994 RMK AO2 SLP120 T02170122
KRNM 090853Z AUTO 00000KT 10SM CLR 21/13 A2995 RMK AO2 SLP122 T02110128 58010
KRNM 090753Z AUTO 00000KT 10SM CLR 23/12 A2996 RMK AO2 SLP125 T02280122 403500183
KRNM 090653Z AUTO 00000KT 10SM CLR 23/13 A2998 RMK AO2 SLP131 T02330128
KRNM 090553Z AUTO 18003KT 10SM CLR 24/12 A2998 RMK AO2 SLP132 60000 T02390122 10344 20233 51008
KRNM 090453Z AUTO 13003KT 10SM FEW085 FEW110 23/14 A2998 RMK AO2 RAB0357E41 SLP132 P0000 T02330139
KRNM 090353Z AUTO 20004KT 10SM FEW085 SCT110 26/09 A2997 RMK AO2 RAB31E52 SLP128 P0000 T02560089
KRNM 090253Z 30005KT 10SM CLR 27/13 A2995 RMK AO2 SLP125 T02670133 53015